Time;durP1;ratioP1;P1;durP2;ratioP2;P2;SDS_P1;SDS_P2;PMS_P1;PMS_P2;Temp;Humidity;BMP_temperature;BMP_pressure;BME280_temperature;BME280_humidity;BME280_pressure;Samples;Min_cycle;Max_cycle;Signal;HPM_P1;HPM_P2
2022/09/08 00:02:24;;;;;;;3.72;2.75;;;;;;;;;;5051744;28;20554;-69
2022/09/08 00:04:51;;;;;;;8.90;3.42;;;;;;;;;;5051617;28;20049;-68
2022/09/08 00:07:18;;;;;;;3.47;2.75;;;;;;;;;;5051995;28;20087;-69
2022/09/08 00:09:45;;;;;;;5.82;2.90;;;;;;;;;;5051306;28;20048;-69
2022/09/08 00:12:12;;;;;;;4.35;2.70;;;;;;;;;;5051760;28;20124;-69
2022/09/08 00:14:39;;;;;;;5.20;3.30;;;;;;;;;;5017682;28;20145;-69
2022/09/08 00:17:05;;;;;;;9.30;2.78;;;;;;;;;;5051697;28;20077;-69
2022/09/08 00:19:32;;;;;;;7.03;2.92;;;;;;;;;;5051438;28;20129;-69
2022/09/08 00:21:58;;;;;;;5.32;2.70;;;;;;;;;;5051460;28;20056;-69
2022/09/08 00:24:25;;;;;;;3.25;2.88;;;;;;;;;;5052499;28;20095;-69
2022/09/08 00:26:52;;;;;;;5.13;3.28;;;;;;;;;;5055619;28;20077;-69
2022/09/08 00:29:18;;;;;;;4.88;2.90;;;;;;;;;;5055271;28;20142;-69
2022/09/08 00:31:45;;;;;;;4.05;2.67;;;;;;;;;;5055376;28;20095;-69
2022/09/08 00:34:12;;;;;;;3.53;2.60;;;;;;;;;;5055415;28;20075;-69
2022/09/08 00:36:38;;;;;;;4.85;3.08;;;;;;;;;;5055403;28;20535;-69
2022/09/08 00:39:05;;;;;;;8.00;2.60;;;;;;;;;;5055353;28;20239;-69
2022/09/08 00:41:31;;;;;;;4.95;2.60;;;;;;;;;;5055249;28;20106;-69
2022/09/08 00:43:59;;;;;;;4.65;2.92;;;;;;;;;;5055227;28;20049;-69
2022/09/08 00:46:35;;;;;;;6.90;2.95;;;;;;;;;;5055097;28;20123;-69
2022/09/08 00:49:07;;;;;;;4.03;2.97;;;;;;;;;;5054735;28;20098;-69
2022/09/08 00:51:35;;;;;;;3.67;2.75;;;;;;;;;;5037547;28;20128;-69
2022/09/08 00:54:02;;;;;;;5.72;3.03;;;;;;;;;;5055075;28;20512;-69
2022/09/08 00:56:28;;;;;;;4.15;3.20;;;;;;;;;;5021003;28;20045;-69
2022/09/08 00:58:55;;;;;;;5.00;3.03;;;;;;;;;;5054622;28;20485;-69
2022/09/08 01:01:22;;;;;;;3.20;2.90;;;;;;;;;;5020909;28;20077;-69
2022/09/08 01:03:49;;;;;;;4.22;3.08;;;;;;;;;;5055016;28;20055;-69
2022/09/08 01:15:05;;;;;;;8.60;3.63;;;;;;;;;;5040060;28;20464;-69
2022/09/08 01:17:32;;;;;;;3.83;3.30;;;;;;;;;;5054662;28;20503;-69
2022/09/08 01:20:00;;;;;;;4.75;3.38;;;;;;;;;;5054218;28;20141;-68
2022/09/08 01:22:51;;;;;;;6.45;3.40;;;;;;;;;;5004276;28;20056;-68
2022/09/08 01:25:49;;;;;;;4.03;3.47;;;;;;;;;;5054405;28;20148;-68
2022/09/08 01:28:22;;;;;;;4.38;3.35;;;;;;;;;;5036479;28;20084;-68
2022/09/08 01:30:49;;;;;;;4.95;4.43;;;;;;;;;;5067388;28;20061;-69
2022/09/08 01:33:16;;;;;;;5.63;3.95;;;;;;;;;;5061857;28;20029;-69
2022/09/08 01:35:43;;;;;;;5.60;4.47;;;;;;;;;;5036472;28;20053;-69
2022/09/08 01:38:10;;;;;;;4.95;4.10;;;;;;;;;;5057439;28;20504;-69
2022/09/08 01:40:40;;;;;;;10.35;4.85;;;;;;;;;;5040587;28;20052;-69
2022/09/08 01:43:10;;;;;;;9.30;4.82;;;;;;;;;;5058274;28;20081;-69
2022/09/08 01:45:38;;;;;;;7.53;5.10;;;;;;;;;;5058796;28;20053;-69
2022/09/08 01:48:05;;;;;;;6.55;5.63;;;;;;;;;;5057714;28;20469;-69
2022/09/08 01:50:32;;;;;;;6.18;4.95;;;;;;;;;;5054832;28;20122;-69
2022/09/08 01:52:58;;;;;;;12.63;7.07;;;;;;;;;;5053977;28;20064;-68
2022/09/08 01:55:25;;;;;;;9.43;6.00;;;;;;;;;;5053770;28;20061;-68
2022/09/08 01:57:52;;;;;;;6.68;5.97;;;;;;;;;;5053784;28;20053;-69
2022/09/08 02:00:18;;;;;;;9.80;5.63;;;;;;;;;;5053890;28;20324;-68
2022/09/08 02:02:45;;;;;;;7.55;6.80;;;;;;;;;;5053822;28;20500;-69
2022/09/08 02:05:13;;;;;;;10.95;6.63;;;;;;;;;;5054544;28;20052;-68
2022/09/08 02:07:40;;;;;;;6.30;5.70;;;;;;;;;;5053873;28;20523;-68
2022/09/08 02:10:08;;;;;;;8.15;6.88;;;;;;;;;;5053366;28;20071;-68
2022/09/08 02:12:34;;;;;;;7.15;6.32;;;;;;;;;;5053791;28;20094;-68
2022/09/08 02:15:01;;;;;;;7.55;6.72;;;;;;;;;;5053740;28;20049;-68
2022/09/08 02:17:28;;;;;;;8.15;6.25;;;;;;;;;;5053565;28;20106;-68
2022/09/08 02:19:55;;;;;;;8.68;7.00;;;;;;;;;;5053217;28;20139;-68
2022/09/08 02:22:22;;;;;;;8.25;6.13;;;;;;;;;;5053291;28;20124;-68
2022/09/08 02:24:48;;;;;;;6.82;5.88;;;;;;;;;;5053594;28;20106;-68
2022/09/08 02:27:15;;;;;;;7.70;5.50;;;;;;;;;;5053383;28;20432;-68
2022/09/08 02:29:41;;;;;;;8.43;5.40;;;;;;;;;;5052948;28;20102;-69
2022/09/08 02:32:08;;;;;;;7.57;6.55;;;;;;;;;;5053083;28;20107;-69
2022/09/08 02:34:35;;;;;;;7.30;5.97;;;;;;;;;;5053146;28;20436;-69
2022/09/08 02:37:02;;;;;;;10.57;6.15;;;;;;;;;;5052946;28;20183;-69
2022/09/08 02:39:29;;;;;;;7.88;6.07;;;;;;;;;;5053010;28;20053;-69
2022/09/08 02:41:56;;;;;;;6.57;5.93;;;;;;;;;;5053315;28;20049;-69
2022/09/08 02:44:23;;;;;;;12.75;6.40;;;;;;;;;;5052979;28;20098;-69
2022/09/08 02:46:49;;;;;;;7.22;6.45;;;;;;;;;;5052808;28;20075;-69
2022/09/08 02:49:16;;;;;;;7.10;5.90;;;;;;;;;;5052469;28;20049;-69
2022/09/08 02:51:43;;;;;;;6.15;5.22;;;;;;;;;;5052914;28;20045;-68
2022/09/08 02:54:09;;;;;;;8.52;4.68;;;;;;;;;;5052796;28;20301;-69
2022/09/08 02:56:36;;;;;;;5.65;3.85;;;;;;;;;;5052874;28;20103;-68
2022/09/08 02:59:03;;;;;;;4.28;3.67;;;;;;;;;;5052604;28;20482;-69
2022/09/08 03:01:29;;;;;;;4.43;4.03;;;;;;;;;;5052679;28;20045;-68
2022/09/08 03:03:56;;;;;;;4.07;3.15;;;;;;;;;;5052525;28;20052;-69
2022/09/08 03:06:23;;;;;;;4.95;3.40;;;;;;;;;;5052470;28;20049;-69
2022/09/08 03:08:49;;;;;;;4.13;2.83;;;;;;;;;;5052181;28;20072;-68
2022/09/08 03:11:16;;;;;;;4.20;2.80;;;;;;;;;;5052263;28;20136;-69
2022/09/08 03:13:43;;;;;;;3.30;2.40;;;;;;;;;;5052379;28;20083;-68
2022/09/08 03:16:09;;;;;;;2.75;2.20;;;;;;;;;;5052492;28;20110;-69
2022/09/08 03:18:36;;;;;;;3.60;2.40;;;;;;;;;;5051932;28;20056;-68
2022/09/08 03:21:08;;;;;;;5.35;2.35;;;;;;;;;;5052320;28;20053;-68
2022/09/08 03:23:34;;;;;;;3.10;1.85;;;;;;;;;;5034568;28;20053;-69
2022/09/08 03:26:03;;;;;;;2.45;1.98;;;;;;;;;;5052583;28;20132;-68
2022/09/08 03:28:30;;;;;;;2.67;1.92;;;;;;;;;;5052122;28;20099;-68
2022/09/08 03:30:57;;;;;;;1.85;1.75;;;;;;;;;;5052246;28;20460;-69
2022/09/08 03:33:23;;;;;;;5.10;1.80;;;;;;;;;;5052255;28;20397;-69
2022/09/08 03:35:50;;;;;;;2.55;1.90;;;;;;;;;;5052403;28;20049;-68
2022/09/08 03:38:17;;;;;;;2.17;1.70;;;;;;;;;;5051814;28;20148;-69
2022/09/08 03:40:44;;;;;;;4.13;2.15;;;;;;;;;;5052128;28;20503;-69
2022/09/08 03:43:11;;;;;;;3.72;2.40;;;;;;;;;;5052167;28;20463;-69
2022/09/08 03:45:44;;;;;;;5.32;2.45;;;;;;;;;;5051893;28;20072;-69
2022/09/08 03:48:12;;;;;;;3.72;2.05;;;;;;;;;;5051797;28;20053;-69
2022/09/08 03:50:39;;;;;;;1.90;1.70;;;;;;;;;;5051773;28;20144;-68
2022/09/08 03:53:06;;;;;;;3.30;1.63;;;;;;;;;;5051879;28;20057;-68
2022/09/08 03:55:33;;;;;;;1.63;1.40;;;;;;;;;;5052037;28;20049;-69
2022/09/08 03:58:00;;;;;;;3.35;1.45;;;;;;;;;;5052117;28;20172;-69
2022/09/08 04:00:27;;;;;;;2.05;1.38;;;;;;;;;;5051226;28;20048;-68
2022/09/08 04:02:54;;;;;;;1.63;1.30;;;;;;;;;;5051791;28;20099;-69
2022/09/08 04:05:21;;;;;;;2.13;1.58;;;;;;;;;;5051852;28;20055;-69
2022/09/08 04:07:48;;;;;;;1.75;1.35;;;;;;;;;;5051658;28;20095;-68
2022/09/08 04:10:15;;;;;;;1.85;1.40;;;;;;;;;;5051657;28;20083;-68
2022/09/08 04:12:44;;;;;;;2.92;1.73;;;;;;;;;;5052104;28;20151;-69
2022/09/08 04:15:10;;;;;;;1.92;1.40;;;;;;;;;;5051654;28;20053;-68
2022/09/08 04:17:37;;;;;;;1.73;1.30;;;;;;;;;;5051779;28;20128;-69
2022/09/08 04:20:05;;;;;;;1.20;1.10;;;;;;;;;;5051681;28;20451;-68
2022/09/08 04:22:32;;;;;;;2.65;1.50;;;;;;;;;;5051710;28;20136;-69
2022/09/08 04:24:58;;;;;;;1.60;1.20;;;;;;;;;;5051534;28;20144;-69
2022/09/08 04:27:25;;;;;;;4.88;1.35;;;;;;;;;;5051553;28;20117;-69
2022/09/08 04:29:51;;;;;;;1.65;1.10;;;;;;;;;;5051596;28;20140;-69
2022/09/08 04:32:19;;;;;;;1.88;0.98;;;;;;;;;;5052143;28;20081;-68
2022/09/08 04:34:49;;;;;;;1.30;1.10;;;;;;;;;;5051938;28;20147;-68
2022/09/08 04:37:16;;;;;;;1.52;1.02;;;;;;;;;;5051524;28;20060;-69
2022/09/08 04:39:43;;;;;;;2.88;1.08;;;;;;;;;;5051092;28;20136;-69
2022/09/08 04:42:09;;;;;;;1.40;1.30;;;;;;;;;;5051276;28;20568;-69
2022/09/08 04:44:36;;;;;;;1.95;1.13;;;;;;;;;;5051591;28;20493;-69
2022/09/08 04:47:03;;;;;;;3.03;1.30;;;;;;;;;;5051438;28;20049;-69
2022/09/08 04:49:29;;;;;;;2.22;1.45;;;;;;;;;;5050908;28;20924;-68
2022/09/08 04:51:56;;;;;;;2.75;1.30;;;;;;;;;;5051221;28;20095;-68
2022/09/08 04:54:23;;;;;;;1.27;1.17;;;;;;;;;;5051261;28;20056;-68
2022/09/08 04:56:49;;;;;;;4.00;1.10;;;;;;;;;;5051608;28;20079;-68
2022/09/08 04:59:17;;;;;;;1.50;1.17;;;;;;;;;;5051138;28;20483;-68
2022/09/08 05:01:43;;;;;;;3.25;1.10;;;;;;;;;;5051449;28;20127;-67
2022/09/08 05:04:10;;;;;;;2.08;1.20;;;;;;;;;;5051198;28;20055;-68
2022/09/08 05:06:36;;;;;;;3.03;1.10;;;;;;;;;;5051176;28;20135;-67
2022/09/08 05:09:03;;;;;;;1.40;1.00;;;;;;;;;;5050765;28;20080;-67
2022/09/08 05:11:31;;;;;;;1.98;1.65;;;;;;;;;;5051953;28;20088;-68
2022/09/08 05:13:58;;;;;;;2.40;1.00;;;;;;;;;;5054753;28;20499;-68
2022/09/08 05:16:26;;;;;;;1.10;1.00;;;;;;;;;;5054733;28;20390;-68
2022/09/08 05:18:58;;;;;;;1.17;0.98;;;;;;;;;;5020471;28;20081;-67
2022/09/08 05:21:26;;;;;;;1.92;1.20;;;;;;;;;;5054415;28;20564;-67
2022/09/08 05:23:53;;;;;;;1.65;1.05;;;;;;;;;;5054404;28;20124;-67
2022/09/08 05:26:21;;;;;;;1.50;1.05;;;;;;;;;;5054555;28;20084;-67
2022/09/08 05:28:47;;;;;;;1.50;1.08;;;;;;;;;;5053980;28;20149;-68
2022/09/08 05:31:19;;;;;;;1.55;1.10;;;;;;;;;;5054367;28;20071;-68
2022/09/08 05:33:46;;;;;;;3.07;1.20;;;;;;;;;;5054420;28;20049;-67
2022/09/08 05:36:15;;;;;;;1.52;1.00;;;;;;;;;;5054174;28;20088;-67
2022/09/08 05:38:44;;;;;;;1.90;1.15;;;;;;;;;;5036354;28;20131;-68
2022/09/08 05:41:11;;;;;;;1.90;1.20;;;;;;;;;;5054160;28;20492;-68
2022/09/08 05:43:38;;;;;;;1.95;1.25;;;;;;;;;;5054060;28;20092;-68
2022/09/08 05:46:04;;;;;;;1.75;1.15;;;;;;;;;;5054161;28;20136;-68
2022/09/08 05:48:31;;;;;;;2.80;1.20;;;;;;;;;;5054081;28;20114;-69
2022/09/08 05:50:58;;;;;;;2.22;1.25;;;;;;;;;;5053873;28;20092;-68
2022/09/08 05:53:25;;;;;;;0.90;0.90;;;;;;;;;;5054306;28;20091;-67
2022/09/08 05:55:57;;;;;;;2.60;1.20;;;;;;;;;;5054106;28;20136;-68
2022/09/08 05:58:24;;;;;;;1.92;0.90;;;;;;;;;;5053748;28;20136;-68
2022/09/08 06:00:59;;;;;;;1.63;1.30;;;;;;;;;;5036197;28;20463;-67
2022/09/08 06:03:26;;;;;;;2.25;1.35;;;;;;;;;;5053809;28;20575;-68
2022/09/08 06:05:54;;;;;;;1.23;0.93;;;;;;;;;;5054010;28;20110;-68
2022/09/08 06:08:21;;;;;;;3.15;1.33;;;;;;;;;;5053465;28;20080;-67
2022/09/08 06:10:49;;;;;;;1.40;1.00;;;;;;;;;;5053476;28;20091;-67
2022/09/08 06:13:16;;;;;;;2.22;1.27;;;;;;;;;;5053572;28;20149;-67
2022/09/08 06:15:44;;;;;;;2.08;1.20;;;;;;;;;;5053415;28;20139;-67
2022/09/08 06:18:10;;;;;;;3.30;1.17;;;;;;;;;;5035781;28;20057;-67
2022/09/08 06:20:37;;;;;;;2.30;1.20;;;;;;;;;;5053386;28;20080;-67
2022/09/08 06:23:04;;;;;;;3.40;1.10;;;;;;;;;;5053076;28;20075;-67
2022/09/08 06:25:30;;;;;;;3.08;1.10;;;;;;;;;;5053247;28;20135;-68
2022/09/08 06:28:02;;;;;;;1.85;1.20;;;;;;;;;;5053022;28;20132;-68
2022/09/08 06:30:28;;;;;;;3.22;1.25;;;;;;;;;;5019282;28;20575;-68
2022/09/08 06:33:15;;;;;;;2.75;1.40;;;;;;;;;;5053117;28;20522;-68
2022/09/08 06:35:49;;;;;;;3.10;0.90;;;;;;;;;;5019339;28;20123;-68
2022/09/08 06:38:22;;;;;;;1.65;0.88;;;;;;;;;;5019434;28;20467;-68
2022/09/08 06:40:51;;;;;;;2.85;0.93;;;;;;;;;;5054479;28;20179;-69
2022/09/08 06:43:39;;;;;;;2.80;0.95;;;;;;;;;;5035414;28;20087;-69
2022/09/08 06:46:10;;;;;;;2.33;0.77;;;;;;;;;;5020126;28;20476;-69
2022/09/08 06:48:39;;;;;;;1.80;0.80;;;;;;;;;;5034973;28;20155;-69
2022/09/08 06:51:27;;;;;;;1.55;0.90;;;;;;;;;;5035684;28;20147;-69
2022/09/08 06:54:08;;;;;;;1.73;1.10;;;;;;;;;;5035445;28;20162;-69
2022/09/08 06:56:44;;;;;;;2.25;0.80;;;;;;;;;;5053123;28;20082;-69
2022/09/08 06:59:48;;;;;;;1.52;0.80;;;;;;;;;;5052328;28;20051;-69
2022/09/08 07:02:39;;;;;;;2.15;1.00;;;;;;;;;;5052706;28;20507;-69
2022/09/08 07:05:31;;;;;;;1.20;0.75;;;;;;;;;;5021463;28;20053;-69
2022/09/08 07:08:21;;;;;;;0.93;0.60;;;;;;;;;;5052258;28;20084;-69
2022/09/08 07:10:56;;;;;;;2.53;0.65;;;;;;;;;;4998220;28;20136;-69
2022/09/08 07:13:30;;;;;;;3.35;0.70;;;;;;;;;;5034899;28;20060;-69
2022/09/08 07:15:59;;;;;;;1.08;0.60;;;;;;;;;;5052398;28;20478;-69
2022/09/08 07:18:48;;;;;;;1.20;0.60;;;;;;;;;;5052160;28;20128;-69
2022/09/08 07:21:29;;;;;;;0.70;0.52;;;;;;;;;;5018475;28;20084;-69
2022/09/08 07:23:57;;;;;;;1.08;0.50;;;;;;;;;;5052239;28;20099;-69
2022/09/08 07:26:34;;;;;;;1.70;0.60;;;;;;;;;;5034579;28;20104;-69
2022/09/08 07:29:30;;;;;;;2.25;0.95;;;;;;;;;;5034947;28;20189;-69
2022/09/08 07:31:57;;;;;;;0.63;0.52;;;;;;;;;;5038463;28;20115;-69
2022/09/08 07:34:26;;;;;;;1.55;0.50;;;;;;;;;;5033948;28;20123;-68
2022/09/08 07:37:11;;;;;;;2.47;0.88;;;;;;;;;;5052070;28;20056;-69
2022/09/08 07:39:40;;;;;;;2.47;1.10;;;;;;;;;;5034074;28;20088;-69
2022/09/08 07:42:11;;;;;;;3.60;0.50;;;;;;;;;;5034353;28;20089;-68
2022/09/08 07:44:42;;;;;;;1.75;0.55;;;;;;;;;;5034943;28;20092;-69
2022/09/08 07:47:33;;;;;;;0.40;0.40;;;;;;;;;;5051889;28;20182;-69
2022/09/08 07:50:13;;;;;;;1.13;0.82;;;;;;;;;;5051957;28;20127;-69
2022/09/08 07:53:00;;;;;;;3.10;0.63;;;;;;;;;;5052071;28;20136;-69
2022/09/08 07:55:39;;;;;;;1.60;0.45;;;;;;;;;;5051936;28;20092;-69
2022/09/08 07:58:29;;;;;;;1.88;0.70;;;;;;;;;;5051880;28;20091;-69
2022/09/08 08:01:16;;;;;;;2.70;0.50;;;;;;;;;;5020709;28;20597;-69
2022/09/08 08:03:58;;;;;;;0.68;0.32;;;;;;;;;;5034828;28;20080;-69
2022/09/08 08:06:53;;;;;;;1.85;0.90;;;;;;;;;;5051761;28;20053;-69
2022/09/08 08:09:38;;;;;;;0.93;0.50;;;;;;;;;;5036224;28;20499;-69
2022/09/08 08:12:26;;;;;;;3.03;0.50;;;;;;;;;;5051751;28;20135;-69
2022/09/08 08:15:02;;;;;;;3.15;0.85;;;;;;;;;;5051853;28;20092;-69
2022/09/08 08:17:46;;;;;;;3.58;0.60;;;;;;;;;;5035042;28;20059;-68
2022/09/08 08:20:34;;;;;;;1.25;0.50;;;;;;;;;;5033926;28;20456;-69
2022/09/08 08:23:09;;;;;;;0.47;0.40;;;;;;;;;;5033908;28;20120;-69
2022/09/08 08:25:44;;;;;;;0.85;0.60;;;;;;;;;;5051708;28;20076;-69
2022/09/08 08:28:19;;;;;;;0.93;0.47;;;;;;;;;;5033739;28;20512;-69
2022/09/08 08:30:51;;;;;;;0.75;0.50;;;;;;;;;;5034194;28;20045;-69
2022/09/08 08:33:24;;;;;;;2.47;0.50;;;;;;;;;;5051439;28;20482;-69
2022/09/08 08:35:56;;;;;;;1.40;0.40;;;;;;;;;;5017804;28;20088;-69
2022/09/08 08:38:42;;;;;;;2.40;0.45;;;;;;;;;;5019826;28;20049;-69
2022/09/08 08:41:35;;;;;;;0.70;0.38;;;;;;;;;;5018021;28;20084;-69
2022/09/08 08:44:22;;;;;;;0.88;0.55;;;;;;;;;;5001823;28;20053;-69
2022/09/08 08:47:13;;;;;;;0.30;0.30;;;;;;;;;;5054727;28;20088;-69
2022/09/08 08:49:58;;;;;;;0.82;0.43;;;;;;;;;;5054793;28;20049;-69
2022/09/08 08:52:36;;;;;;;1.63;0.50;;;;;;;;;;5055041;28;20484;-69
2022/09/08 08:55:27;;;;;;;;;;;;;;;;;;5038770;28;20087;-69
2022/09/08 08:58:06;;;;;;;0.88;0.45;;;;;;;;;;5054787;28;19974;-69
2022/09/08 09:00:59;;;;;;;0.95;0.30;;;;;;;;;;5040601;28;20059;-69
2022/09/08 09:03:40;;;;;;;1.15;0.40;;;;;;;;;;5037437;28;20139;-69
2022/09/08 09:06:26;;;;;;;0.88;0.40;;;;;;;;;;5054807;28;20088;-69
2022/09/08 09:09:12;;;;;;;2.20;0.38;;;;;;;;;;5054533;28;20515;-69
2022/09/08 09:11:57;;;;;;;1.67;0.50;;;;;;;;;;5054708;28;20550;-69
2022/09/08 09:15:18;;;;;;;0.90;0.40;;;;;;;;;;5037342;28;20207;-69
2022/09/08 09:18:21;;;;;;;1.13;0.40;;;;;;;;;;4977685;28;20055;-69
2022/09/08 09:20:59;;;;;;;0.35;0.30;;;;;;;;;;5037040;28;20132;-69
2022/09/08 09:23:25;;;;;;;1.00;0.47;;;;;;;;;;5037312;28;20080;-69
2022/09/08 09:25:57;;;;;;;0.45;0.35;;;;;;;;;;5054519;28;20048;-69
2022/09/08 09:29:01;;;;;;;2.07;0.50;;;;;;;;;;5054384;28;20091;-69
2022/09/08 09:31:43;;;;;;;0.57;0.30;;;;;;;;;;5054620;28;20367;-69
2022/09/08 09:34:28;;;;;;;1.58;0.55;;;;;;;;;;5054414;28;20496;-70
2022/09/08 09:37:05;;;;;;;4.18;0.70;;;;;;;;;;5054484;28;20114;-69
2022/09/08 09:39:56;;;;;;;0.60;0.32;;;;;;;;;;5054188;28;20116;-69
2022/09/08 09:42:45;;;;;;;1.50;0.47;;;;;;;;;;5054261;28;20045;-69
2022/09/08 09:45:59;;;;;;;1.83;0.57;;;;;;;;;;5054345;28;20057;-69
2022/09/08 09:48:28;;;;;;;1.23;0.40;;;;;;;;;;4972731;28;20570;-69
2022/09/08 09:51:23;;;;;;;1.98;0.55;;;;;;;;;;5039244;28;20068;-69
2022/09/08 09:54:14;;;;;;;4.00;0.63;;;;;;;;;;5037651;28;20093;-69
2022/09/08 09:56:44;;;;;;;1.35;0.50;;;;;;;;;;5037602;28;20084;-70
2022/09/08 09:59:13;;;;;;;1.05;0.52;;;;;;;;;;5053718;28;20053;-69
2022/09/08 10:02:11;;;;;;;1.73;0.70;;;;;;;;;;5054001;28;20048;-69
2022/09/08 10:04:56;;;;;;;1.63;0.70;;;;;;;;;;5053836;28;20076;-69
2022/09/08 10:07:22;;;;;;;0.73;0.60;;;;;;;;;;5053771;28;20053;-69
2022/09/08 10:10:14;;;;;;;0.95;0.60;;;;;;;;;;5054153;28;20351;-69
2022/09/08 10:13:12;;;;;;;1.92;0.40;;;;;;;;;;5053762;28;20076;-69
2022/09/08 10:15:42;;;;;;;2.72;0.57;;;;;;;;;;5021338;28;20543;-69
2022/09/08 10:18:42;;;;;;;3.22;0.47;;;;;;;;;;5053746;28;20088;-70
2022/09/08 10:21:08;;;;;;;0.82;0.45;;;;;;;;;;5053606;28;20135;-70
2022/09/08 10:23:46;;;;;;;2.10;0.52;;;;;;;;;;5053304;28;20088;-70
2022/09/08 10:26:31;;;;;;;0.45;0.43;;;;;;;;;;5036253;28;20088;-70
2022/09/08 10:29:16;;;;;;;0.90;0.50;;;;;;;;;;5053334;28;20053;-70
2022/09/08 10:31:58;;;;;;;2.35;0.60;;;;;;;;;;5053374;28;20127;-70
2022/09/08 10:34:46;;;;;;;0.35;0.35;;;;;;;;;;5053493;28;20076;-71
2022/09/08 10:37:42;;;;;;;0.50;0.50;;;;;;;;;;5053309;28;20083;-70
2022/09/08 10:40:45;;;;;;;2.28;0.55;;;;;;;;;;4981977;28;20142;-70
2022/09/08 10:43:18;;;;;;;;;;;;;;;;;;5053609;28;20131;-70
2022/09/08 10:45:57;;;;;;;1.63;0.50;;;;;;;;;;5053110;28;19960;-70
2022/09/08 10:48:53;;;;;;;1.42;0.50;;;;;;;;;;5035424;28;20049;-70
2022/09/08 10:51:38;;;;;;;1.95;1.00;;;;;;;;;;5035281;28;20045;-70
2022/09/08 10:54:20;;;;;;;0.77;0.45;;;;;;;;;;5052936;28;20080;-70
2022/09/08 10:56:47;;;;;;;1.35;0.95;;;;;;;;;;5052879;28;20088;-70
2022/09/08 10:59:35;;;;;;;0.63;0.38;;;;;;;;;;5052475;28;20080;-70
2022/09/08 11:02:31;;;;;;;1.63;0.40;;;;;;;;;;5052716;28;20083;-70
2022/09/08 11:05:28;;;;;;;2.30;0.47;;;;;;;;;;5052740;28;20068;-70
2022/09/08 11:08:06;;;;;;;1.55;0.40;;;;;;;;;;5052672;28;20461;-70
2022/09/08 11:10:42;;;;;;;0.88;0.50;;;;;;;;;;5053100;28;20071;-70
2022/09/08 11:13:27;;;;;;;1.30;0.50;;;;;;;;;;5053450;28;20076;-70
2022/09/08 11:16:18;;;;;;;1.25;0.47;;;;;;;;;;5034854;28;20080;-70
2022/09/08 11:19:09;;;;;;;0.47;0.40;;;;;;;;;;5052383;28;20095;-70
2022/09/08 11:22:14;;;;;;;0.47;0.40;;;;;;;;;;5052344;28;20045;-70
2022/09/08 11:24:47;;;;;;;0.60;0.55;;;;;;;;;;5052469;28;20133;-70
2022/09/08 11:27:36;;;;;;;1.05;0.43;;;;;;;;;;5034617;28;20081;-70
2022/09/08 11:30:03;;;;;;;1.20;0.50;;;;;;;;;;5052084;28;20110;-70
2022/09/08 11:32:51;;;;;;;2.55;0.63;;;;;;;;;;5051969;28;20052;-70
2022/09/08 11:35:26;;;;;;;0.88;0.60;;;;;;;;;;5020088;28;20102;-70
2022/09/08 11:38:19;;;;;;;1.40;0.60;;;;;;;;;;5034209;28;20080;-70
2022/09/08 11:41:13;;;;;;;2.83;0.50;;;;;;;;;;5036251;28;20052;-70
2022/09/08 11:44:11;;;;;;;1.58;0.50;;;;;;;;;;5036278;28;20077;-71
2022/09/08 11:46:46;;;;;;;2.03;0.65;;;;;;;;;;5051853;28;20053;-70
2022/09/08 11:49:25;;;;;;;3.00;0.63;;;;;;;;;;5052034;28;20084;-69
2022/09/08 11:52:11;;;;;;;2.15;0.60;;;;;;;;;;5051749;28;20053;-69
2022/09/08 11:55:14;;;;;;;1.75;0.40;;;;;;;;;;5051817;28;20048;-69
2022/09/08 11:57:46;;;;;;;1.75;0.95;;;;;;;;;;5051716;28;20144;-69
2022/09/08 12:00:22;;;;;;;1.77;0.90;;;;;;;;;;5051924;28;20096;-69
2022/09/08 12:03:19;;;;;;;1.20;0.60;;;;;;;;;;5051930;28;20128;-70
2022/09/08 12:06:13;;;;;;;1.80;0.70;;;;;;;;;;5051813;28;20084;-69
2022/09/08 12:09:06;;;;;;;1.35;0.40;;;;;;;;;;5037096;28;20045;-69
2022/09/08 12:11:55;;;;;;;1.80;0.57;;;;;;;;;;5034470;28;20081;-69
2022/09/08 12:14:36;;;;;;;2.40;0.70;;;;;;;;;;5051868;28;20080;-69
2022/09/08 12:17:22;;;;;;;0.85;0.50;;;;;;;;;;5051799;28;20483;-69
2022/09/08 12:20:02;;;;;;;0.70;0.38;;;;;;;;;;5051423;28;20052;-69
2022/09/08 12:22:31;;;;;;;2.22;0.50;;;;;;;;;;5038928;28;20080;-69
2022/09/08 12:25:35;;;;;;;3.13;0.50;;;;;;;;;;5055849;28;20123;-69
2022/09/08 12:28:34;;;;;;;2.25;0.68;;;;;;;;;;5055233;28;20045;-69
2022/09/08 12:31:20;;;;;;;1.23;0.52;;;;;;;;;;5055907;28;20388;-69
2022/09/08 12:34:06;;;;;;;2.08;0.50;;;;;;;;;;5039157;28;20481;-69
2022/09/08 12:36:40;;;;;;;5.85;1.00;;;;;;;;;;5038558;28;20073;-69
2022/09/08 12:39:50;;;;;;;2.70;0.40;;;;;;;;;;5037870;28;20081;-69
2022/09/08 12:42:36;;;;;;;2.83;0.70;;;;;;;;;;5037736;28;20048;-69
2022/09/08 12:45:25;;;;;;;4.95;0.93;;;;;;;;;;5055252;28;20143;-68
2022/09/08 12:48:38;;;;;;;2.88;0.55;;;;;;;;;;5021924;28;20084;-69
2022/09/08 12:51:27;;;;;;;2.00;0.50;;;;;;;;;;4996701;28;20143;-71
2022/09/08 12:54:08;;;;;;;1.15;0.60;;;;;;;;;;5038475;28;20150;-69
2022/09/08 12:56:53;;;;;;;1.67;0.73;;;;;;;;;;5055140;28;20077;-69
2022/09/08 12:59:26;;;;;;;2.08;0.60;;;;;;;;;;5054878;28;20048;-69
2022/09/08 13:02:47;;;;;;;1.65;0.55;;;;;;;;;;5038357;28;20514;-69
2022/09/08 13:05:20;;;;;;;2.40;1.00;;;;;;;;;;4982081;28;20054;-70
2022/09/08 13:08:12;;;;;;;2.40;0.60;;;;;;;;;;5045639;28;20143;-69
2022/09/08 13:10:44;;;;;;;1.80;0.60;;;;;;;;;;5056055;28;20052;-69
2022/09/08 13:13:40;;;;;;;0.85;0.65;;;;;;;;;;5021948;28;20123;-69
2022/09/08 13:16:07;;;;;;;3.47;0.50;;;;;;;;;;5055380;28;20057;-69
2022/09/08 13:19:00;;;;;;;2.88;0.90;;;;;;;;;;5054976;28;20098;-69
2022/09/08 13:21:39;;;;;;;2.53;0.77;;;;;;;;;;5054871;28;20236;-69
2022/09/08 13:24:05;;;;;;;0.85;0.35;;;;;;;;;;5054716;28;20073;-69
2022/09/08 13:26:53;;;;;;;2.15;1.00;;;;;;;;;;5054520;28;20084;-69
2022/09/08 13:29:29;;;;;;;0.93;0.40;;;;;;;;;;5036602;28;20536;-69
2022/09/08 13:32:28;;;;;;;1.17;0.45;;;;;;;;;;5038734;28;20053;-70
2022/09/08 13:35:19;;;;;;;1.17;0.38;;;;;;;;;;5054417;28;20084;-69
2022/09/08 13:37:45;;;;;;;1.13;0.50;;;;;;;;;;5054578;28;20110;-69
2022/09/08 13:40:21;;;;;;;1.42;0.52;;;;;;;;;;5054503;28;20102;-69
2022/09/08 13:42:59;;;;;;;2.03;0.75;;;;;;;;;;5036686;28;20083;-69
2022/09/08 13:45:35;;;;;;;0.40;0.30;;;;;;;;;;5037356;28;20136;-69
2022/09/08 13:48:10;;;;;;;3.55;0.45;;;;;;;;;;5036527;28;20080;-69
2022/09/08 13:50:44;;;;;;;1.75;0.40;;;;;;;;;;5036591;28;20070;-69
2022/09/08 13:53:29;;;;;;;0.68;0.40;;;;;;;;;;5036908;28;20045;-69
2022/09/08 13:56:11;;;;;;;2.53;0.65;;;;;;;;;;5054071;28;20571;-69
2022/09/08 13:58:38;;;;;;;1.33;0.67;;;;;;;;;;5053652;28;20567;-69
2022/09/08 14:01:08;;;;;;;1.95;0.40;;;;;;;;;;5036402;28;20049;-70
2022/09/08 14:03:39;;;;;;;0.82;0.47;;;;;;;;;;5036376;28;20060;-69
2022/09/08 14:06:10;;;;;;;1.70;0.52;;;;;;;;;;5036360;28;20078;-69
2022/09/08 14:08:59;;;;;;;4.28;0.68;;;;;;;;;;5019452;28;20141;-69
2022/09/08 14:11:44;;;;;;;2.25;0.60;;;;;;;;;;5036725;28;20056;-69
2022/09/08 14:14:17;;;;;;;3.25;0.68;;;;;;;;;;5053466;28;20483;-69
2022/09/08 14:16:43;;;;;;;1.45;0.43;;;;;;;;;;5053600;28;20099;-69
2022/09/08 14:19:10;;;;;;;3.03;0.60;;;;;;;;;;5053206;28;20060;-69
2022/09/08 14:21:57;;;;;;;1.38;0.30;;;;;;;;;;5053521;28;20505;-69
2022/09/08 14:24:48;;;;;;;1.70;0.55;;;;;;;;;;5035920;28;20188;-69
2022/09/08 14:27:52;;;;;;;1.63;0.57;;;;;;;;;;5035703;28;20084;-70
2022/09/08 14:30:21;;;;;;;1.13;0.55;;;;;;;;;;5053432;28;20056;-69
2022/09/08 14:33:25;;;;;;;2.05;0.90;;;;;;;;;;5035980;28;20052;-69
2022/09/08 14:36:18;;;;;;;0.63;0.30;;;;;;;;;;5053157;28;20522;-69
2022/09/08 14:39:07;;;;;;;2.65;0.88;;;;;;;;;;5036528;28;20140;-69
2022/09/08 14:41:35;;;;;;;0.80;0.50;;;;;;;;;;5053077;28;20049;-69
2022/09/08 14:44:15;;;;;;;1.65;0.50;;;;;;;;;;5035081;28;20131;-68
2022/09/08 14:46:55;;;;;;;1.08;0.40;;;;;;;;;;5036755;28;20045;-69
2022/09/08 14:49:31;;;;;;;1.17;0.43;;;;;;;;;;5018899;28;20048;-69
2022/09/08 14:52:39;;;;;;;2.10;0.55;;;;;;;;;;5052873;28;20053;-69
2022/09/08 14:55:27;;;;;;;2.45;0.60;;;;;;;;;;5036254;28;20103;-69
2022/09/08 14:58:17;;;;;;;3.08;0.40;;;;;;;;;;5019520;28;20136;-69
2022/09/08 15:00:51;;;;;;;2.63;0.38;;;;;;;;;;5045377;28;20573;-69
2022/09/08 15:03:19;;;;;;;1.35;0.40;;;;;;;;;;5035338;28;20048;-69
2022/09/08 15:05:48;;;;;;;1.48;0.52;;;;;;;;;;5052798;28;20135;-69
2022/09/08 15:08:18;;;;;;;2.45;0.50;;;;;;;;;;5034927;28;20095;-69
2022/09/08 15:11:12;;;;;;;0.73;0.40;;;;;;;;;;5052593;28;20083;-69
2022/09/08 15:13:40;;;;;;;1.60;0.55;;;;;;;;;;5037439;28;20524;-69
2022/09/08 15:16:28;;;;;;;1.85;0.40;;;;;;;;;;5035099;28;20049;-69
2022/09/08 15:19:16;;;;;;;2.70;0.50;;;;;;;;;;5052152;28;20053;-68
2022/09/08 15:21:56;;;;;;;2.10;0.50;;;;;;;;;;5052370;28;20168;-69
2022/09/08 15:24:46;;;;;;;2.00;0.45;;;;;;;;;;5034616;28;20087;-69
2022/09/08 15:27:21;;;;;;;3.72;0.57;;;;;;;;;;5052288;28;20106;-69
2022/09/08 15:30:04;;;;;;;2.35;0.50;;;;;;;;;;5034507;28;20048;-69
2022/09/08 15:32:48;;;;;;;3.50;1.10;;;;;;;;;;5034625;28;20141;-69
2022/09/08 15:35:28;;;;;;;2.00;0.50;;;;;;;;;;5052236;28;20140;-69
2022/09/08 15:38:34;;;;;;;1.65;0.50;;;;;;;;;;5052019;28;20504;-68
2022/09/08 15:41:10;;;;;;;1.25;0.52;;;;;;;;;;5024057;28;20131;-69
2022/09/08 15:44:01;;;;;;;1.00;0.40;;;;;;;;;;5051963;28;20045;-69
2022/09/08 15:46:31;;;;;;;1.75;0.50;;;;;;;;;;5036969;28;20099;-69
2022/09/08 15:49:11;;;;;;;1.02;0.40;;;;;;;;;;5051651;28;20048;-69